Anaconda, MT

12:38 AM MDT on August 23, 2014 (GMT -0600)
RAWS YANKEE FLAT MT US | Change Station
CLOSE
Current Station
Personal Weather Station
Location: Anaconda, MT
Elevation: 6000 ft
Nearby Weather Stations

Elev 6000 ft 46.16 °N, 113.14 °W | Updated 58 minutes ago

Rain
Rain
47 °F
Feels Like 47 °F
N
1
Wind Variable Wind from SSE
Gusts 4.0 mph

Today
High -- | Low -- °F
--% Chance of Precip.
Yesterday
High -- | Low -- °F
Precip. -- in
6:41 AM 8:27 PM
Waning Crescent, 5% visible
Pressure 30.13 in
Visibility 10.0 miles
Clouds Mostly Cloudy 1500 ft
Overcast 4400 ft
Windchill 47 °F
Dew Point 46 °F
Humidity 97%
Rainfall 0.71 in
Snow Depth Not available.
UV 0 out of 12
Pollen 1.80 out of 12
Air Quality Not available.
Flu Activity Not available.
SPECI KBTM 230621Z AUTO 14003KT 10SM BKN015 OVC044 09/08 A3013 RMK AO2 RAB05E15 P0000 T00940083

More Conditions Fewer Conditions

Pressure 30.13 in
Visibility 10.0 miles
Clouds Mostly Cloudy 1500 ft
Overcast 4400 ft
Windchill 47 °F
Dew Point 46 °F
Humidity 97%
Rainfall 0.71 in
Snow Depth Not available.
UV 0 out of 12
Pollen 1.80 out of 12
Air Quality Not available.
Flu Activity Not available.
SPECI KBTM 230621Z AUTO 14003KT 10SM BKN015 OVC044 09/08 A3013 RMK AO2 RAB05E15 P0000 T00940083

More Conditions Fewer Conditions

10-Day Weather Forecast

Almanac

Astronomy

Aug. 23, 2014 Rise Set
Actual Time 6:41 AM MDT 8:27 PM MDT
Civil Twilight 6:09 AM MDT 8:58 PM MDT
Nautical Twilight 5:30 AM MDT 9:37 PM MDT
Astronomical Twilight 4:48 AM MDT 10:19 PM MDT
Moon 4:59 AM MDT 7:14 PM MDT
Length of Visible Light 14h 49m
Length of Day
13h 45m
Tomorrow will be 3m 2s shorter.
Waning Crescent, 5% of the Moon is Illuminated
Today
Waning Crescent
Aug 25
New
Sep 2
First Quarter
Sep 8
Full
Sep 15
Last Quarter

Today's Extremes

State Highs State Lows

Community

WunderPhotos

Upload Photos

1,746,371 photos uploaded!

WunderBlogs® & News

By Dr. Jeff Masters
Director of Meteorology, Weather Underground
By Kari Strenfel
Meteorologist, Weather Underground
By Christopher C. Burt
Weather Historian, Weather Underground
August 23, 2014
August 23, 2014
August 22, 2014

Nearby

Snow Depth

Station Depth Elevation
Barker Lakes 0 in 8250 ft
Peterson Meadows 1 in 7200 ft
Combination 1 in 5600 ft
Basin Creek 0 in 7180 ft
Skalkaho Summit 0 in 7250 ft

Earthquake Activity

City Distance Mag. Time & Date
No recent earthquake activity has been reported nearby.
Minimum magnitude displayed is 2.5.

Coastal Water Temperatures

Place Temperature
No Stations Reporting

Nearby Weather Stations